Time;durP1;ratioP1;P1;durP2;ratioP2;P2;SDS_P1;SDS_P2;PMS_P1;PMS_P2;Temp;Humidity;BMP_temperature;BMP_pressure;BME280_temperature;BME280_humidity;BME280_pressure;Samples;Min_cycle;Max_cycle;Signal;HPM_P1;HPM_P2
2024/04/10 00:01:04;;;;;;;9.37;2.53;;;11.30;99.90;;;;;;5424735;26;20466;-74
2024/04/10 00:03:31;;;;;;;8.13;2.63;;;11.20;99.90;;;;;;5401502;26;20455;-75
2024/04/10 00:06:05;;;;;;;7.77;2.73;;;11.30;99.90;;;;;;5456381;26;20593;-74
2024/04/10 00:08:32;;;;;;;7.80;2.40;;;11.30;99.90;;;;;;5457872;26;20454;-74
2024/04/10 00:10:58;;;;;;;5.57;2.10;;;11.30;99.90;;;;;;5460445;26;20467;-70
2024/04/10 00:13:24;;;;;;;5.70;1.87;;;11.20;99.90;;;;;;5462461;26;20570;-78
2024/04/10 00:16:07;;;;;;;6.83;2.03;;;11.10;99.90;;;;;;5459596;26;20469;-69
2024/04/10 00:18:34;;;;;;;9.10;2.53;;;11.10;99.90;;;;;;5399890;26;20338;-76
2024/04/10 00:21:00;;;;;;;15.90;2.43;;;11.20;99.90;;;;;;5459550;26;20571;-68
2024/04/10 00:23:26;;;;;;;8.20;2.20;;;11.20;99.90;;;;;;5430303;26;20463;-73
2024/04/10 00:26:00;;;;;;;6.87;2.07;;;11.20;99.90;;;;;;5428731;26;20237;-70
2024/04/10 00:28:28;;;;;;;7.60;2.30;;;11.20;99.90;;;;;;5430071;26;20491;-70
2024/04/10 00:30:53;;;;;;;6.00;1.90;;;11.20;99.90;;;;;;5461324;26;20465;-71
2024/04/10 00:33:19;;;;;;;7.30;2.10;;;11.20;99.90;;;;;;5429957;26;20459;-77
2024/04/10 00:36:02;;;;;;;8.10;2.80;;;11.10;99.90;;;;;;5457667;26;20253;-75
2024/04/10 00:38:30;;;;;;;9.97;2.97;;;11.10;99.90;;;;;;5458982;26;20585;-76
2024/04/10 00:40:58;;;;;;;6.10;2.33;;;11.10;99.90;;;;;;5458682;26;23178;-75
2024/04/10 00:43:24;;;;;;;7.90;2.70;;;11.00;99.90;;;;;;5401078;26;20462;-71
2024/04/10 00:45:57;;;;;;;5.77;2.30;;;11.00;99.90;;;;;;5461896;26;20462;-73
2024/04/10 00:48:24;;;;;;;11.90;2.60;;;10.90;99.90;;;;;;5461598;26;20450;-75
2024/04/10 00:50:51;;;;;;;4.67;1.90;;;11.00;99.90;;;;;;5461515;26;20458;-73
2024/04/10 00:53:16;;;;;;;7.80;2.40;;;11.00;99.90;;;;;;5460861;26;20448;-73
2024/04/10 00:55:42;;;;;;;9.10;2.67;;;10.90;99.90;;;;;;5462211;26;20458;-74
2024/04/10 00:58:10;;;;;;;7.63;2.50;;;10.90;99.90;;;;;;5461252;26;20242;-73
2024/04/10 01:00:37;;;;;;;7.63;2.57;;;10.80;99.90;;;;;;5429928;26;20284;-71
2024/04/10 01:03:03;;;;;;;7.50;2.43;;;10.80;99.90;;;;;;5460706;26;20525;-76
2024/04/10 01:05:28;;;;;;;9.70;2.60;;;10.80;99.90;;;;;;5430632;26;20507;-73
2024/04/10 01:07:54;;;;;;;5.37;2.20;;;10.80;99.90;;;;;;5460561;26;20759;-77
2024/04/10 01:10:19;;;;;;;4.80;2.00;;;10.80;99.90;;;;;;5461822;26;20268;-71
2024/04/10 01:12:45;;;;;;;10.33;3.93;;;10.70;99.90;;;;;;5459868;26;20258;-72
2024/04/10 01:15:11;;;;;;;6.93;2.03;;;10.70;99.90;;;;;;5460859;26;20260;-72
2024/04/10 01:17:37;;;;;;;8.47;2.57;;;10.70;99.90;;;;;;5461540;26;20311;-77
2024/04/10 01:20:09;;;;;;;6.30;2.17;;;10.70;99.90;;;;;;5460922;26;20454;-75
2024/04/10 01:22:36;;;;;;;9.70;2.57;;;10.70;99.90;;;;;;5461920;26;20228;-72
2024/04/10 01:25:03;;;;;;;6.70;2.43;;;10.70;99.90;;;;;;5460331;26;20470;-69
2024/04/10 01:27:30;;;;;;;11.07;3.10;;;10.60;99.90;;;;;;5429921;26;20451;-72
2024/04/10 01:29:56;;;;;;;8.57;2.37;;;10.60;99.90;;;;;;5428289;26;22869;-72
2024/04/10 01:32:22;;;;;;;11.47;2.50;;;10.60;99.90;;;;;;5461333;26;20449;-73
2024/04/10 01:34:47;;;;;;;9.20;2.37;;;10.60;99.90;;;;;;5461956;26;20237;-73
2024/04/10 01:37:13;;;;;;;7.50;2.60;;;10.60;99.90;;;;;;5460829;26;20335;-73
2024/04/10 01:39:39;;;;;;;11.00;3.30;;;10.50;99.90;;;;;;5461400;26;20299;-71
2024/04/10 01:42:05;;;;;;;11.27;2.83;;;10.50;99.90;;;;;;5428619;26;20980;-74
2024/04/10 01:44:30;;;;;;;7.40;2.37;;;10.50;99.90;;;;;;5462076;26;20279;-75
2024/04/10 01:46:56;;;;;;;17.40;2.67;;;10.50;99.90;;;;;;5458595;26;20514;-72
2024/04/10 01:49:22;;;;;;;8.17;1.93;;;10.50;99.90;;;;;;5460668;26;20249;-77
2024/04/10 01:51:47;;;;;;;8.50;2.20;;;10.50;99.90;;;;;;5460447;26;20284;-74
2024/04/10 01:54:13;;;;;;;12.23;2.50;;;10.40;99.90;;;;;;5461305;26;20237;-76
2024/04/10 01:56:39;;;;;;;10.10;2.40;;;10.30;99.90;;;;;;5459954;26;20302;-71
2024/04/10 01:59:05;;;;;;;14.70;3.00;;;10.30;99.90;;;;;;5426343;26;20621;-69
2024/04/10 02:01:30;;;;;;;7.17;2.40;;;10.30;99.90;;;;;;5460713;26;20300;-69
2024/04/10 02:03:56;;;;;;;11.17;3.00;;;10.30;99.90;;;;;;5458458;26;20358;-76
2024/04/10 02:06:23;;;;;;;7.80;2.27;;;10.40;99.90;;;;;;5460322;26;20336;-76
2024/04/10 02:08:49;;;;;;;8.60;1.90;;;10.40;99.90;;;;;;5459315;26;20228;-76
2024/04/10 02:11:26;;;;;;;9.17;2.80;;;10.40;99.90;;;;;;5460663;26;20837;-76
2024/04/10 02:13:52;;;;;;;9.37;2.67;;;10.30;99.90;;;;;;5397678;26;20248;-74
2024/04/10 02:16:20;;;;;;;5.97;2.40;;;10.30;99.90;;;;;;5460314;26;20560;-77
2024/04/10 02:18:46;;;;;;;6.67;2.63;;;10.30;99.90;;;;;;5458200;26;20861;-77
2024/04/10 02:22:42;;;;;;;8.03;3.27;;;10.30;99.90;;;;;;5499651;25;20561;-72
2024/04/10 02:25:08;;;;;;;9.70;2.87;;;10.30;99.90;;;;;;5495008;26;20580;-72
2024/04/10 02:27:34;;;;;;;10.80;3.10;;;10.30;99.90;;;;;;5493239;25;20465;-72
2024/04/10 02:29:59;;;;;;;8.47;2.30;;;10.20;99.90;;;;;;5493014;26;20540;-72
2024/04/10 02:32:25;;;;;;;6.77;1.93;;;10.20;99.90;;;;;;5494560;26;20279;-74
2024/04/10 02:34:51;;;;;;;6.83;2.40;;;10.10;99.90;;;;;;5493446;26;20274;-73
2024/04/10 02:37:16;;;;;;;11.07;2.63;;;10.20;99.90;;;;;;5492190;26;20263;-73
2024/04/10 02:39:42;;;;;;;7.53;2.90;;;10.20;99.90;;;;;;5495154;26;20267;-73
2024/04/10 02:42:08;;;;;;;7.53;2.43;;;10.20;99.90;;;;;;5492906;26;20309;-72
2024/04/10 02:44:33;;;;;;;10.20;2.90;;;10.20;99.90;;;;;;5492557;26;20521;-73
2024/04/10 02:46:59;;;;;;;9.90;2.70;;;10.20;99.90;;;;;;5495239;26;20798;-73
2024/04/10 02:49:25;;;;;;;5.40;2.00;;;10.10;99.90;;;;;;5491460;26;20244;-73
2024/04/10 02:51:50;;;;;;;9.67;2.63;;;10.20;99.90;;;;;;5508271;25;20361;-73
2024/04/10 02:54:16;;;;;;;7.17;2.40;;;10.20;99.90;;;;;;5494051;25;20283;-73
2024/04/10 02:56:42;;;;;;;5.20;2.00;;;10.20;99.90;;;;;;5493831;25;20369;-73
2024/04/10 02:59:08;;;;;;;10.63;3.67;;;10.10;99.90;;;;;;5488754;26;20584;-73
2024/04/10 03:01:34;;;;;;;11.03;2.63;;;10.10;99.90;;;;;;5492335;25;20310;-73
2024/04/10 03:04:00;;;;;;;7.57;2.97;;;10.20;99.90;;;;;;5492380;25;20454;-73
2024/04/10 03:06:26;;;;;;;10.87;2.83;;;10.10;99.90;;;;;;5493087;26;21052;-73
2024/04/10 03:08:51;;;;;;;9.10;2.60;;;10.10;99.90;;;;;;5494647;26;20228;-73
2024/04/10 03:11:18;;;;;;;8.73;3.03;;;10.10;99.90;;;;;;5495444;26;21054;-73
2024/04/10 03:13:43;;;;;;;5.77;2.30;;;10.10;99.90;;;;;;5490941;25;20370;-73
2024/04/10 03:16:10;;;;;;;7.40;2.00;;;10.10;99.90;;;;;;5494770;26;20797;-73
2024/04/10 03:18:36;;;;;;;12.20;3.20;;;10.00;99.90;;;;;;5492660;25;20228;-73
2024/04/10 03:21:02;;;;;;;8.67;2.73;;;10.00;99.90;;;;;;5494729;26;21062;-73
2024/04/10 03:23:28;;;;;;;6.97;2.50;;;9.90;99.90;;;;;;5492016;26;20473;-72
2024/04/10 03:26:09;;;;;;;8.47;2.43;;;9.90;99.90;;;;;;5492403;26;20513;-73
2024/04/10 03:28:35;;;;;;;5.90;2.43;;;9.90;99.90;;;;;;5491381;26;20911;-73
2024/04/10 03:31:04;;;;;;;6.33;2.50;;;9.80;99.90;;;;;;5493209;25;20459;-72
2024/04/10 03:33:30;;;;;;;5.80;2.07;;;9.80;99.90;;;;;;5478257;26;20245;-73
2024/04/10 03:35:56;;;;;;;7.53;1.80;;;9.80;99.90;;;;;;5478873;26;20583;-72
2024/04/10 03:38:22;;;;;;;5.47;2.20;;;9.80;99.90;;;;;;5476812;26;20293;-73
2024/04/10 03:40:47;;;;;;;7.63;2.50;;;9.80;99.90;;;;;;5474673;26;20575;-71
2024/04/10 03:43:13;;;;;;;11.23;3.00;;;9.80;99.90;;;;;;5480978;26;20291;-73
2024/04/10 03:45:40;;;;;;;4.87;2.17;;;9.80;99.90;;;;;;5474893;26;20592;-72
2024/04/10 03:48:06;;;;;;;9.73;2.67;;;9.70;99.90;;;;;;5476316;26;20529;-73
2024/04/10 03:50:31;;;;;;;8.33;2.50;;;9.80;99.90;;;;;;5476211;26;20454;-72
2024/04/10 03:52:57;;;;;;;6.73;2.30;;;9.80;99.90;;;;;;5475893;26;20230;-73
2024/04/10 03:55:23;;;;;;;10.03;3.23;;;9.80;99.90;;;;;;5477160;26;20493;-73
2024/04/10 03:57:49;;;;;;;10.63;2.60;;;9.80;99.90;;;;;;5474718;26;20608;-73
2024/04/10 04:00:15;;;;;;;12.13;2.57;;;9.80;99.90;;;;;;5494283;25;20244;-72
2024/04/10 04:02:41;;;;;;;8.50;3.23;;;9.80;99.90;;;;;;5475845;26;20865;-73
2024/04/10 04:05:06;;;;;;;7.17;2.30;;;9.90;99.90;;;;;;5475212;26;20513;-73
2024/04/10 04:07:32;;;;;;;8.40;2.30;;;9.80;99.90;;;;;;5477728;26;20648;-72
2024/04/10 04:09:58;;;;;;;6.20;2.17;;;9.80;99.90;;;;;;5477905;26;20234;-73
2024/04/10 04:12:23;;;;;;;8.60;3.00;;;9.80;99.90;;;;;;5480934;26;20233;-71
2024/04/10 04:14:49;;;;;;;10.43;3.63;;;9.80;99.90;;;;;;5475137;26;20238;-72
2024/04/10 04:17:15;;;;;;;7.73;2.03;;;9.70;99.90;;;;;;5476909;26;20236;-72
2024/04/10 04:19:40;;;;;;;10.43;2.53;;;9.70;99.90;;;;;;5477487;26;20354;-72
2024/04/10 04:22:06;;;;;;;12.30;4.00;;;9.70;99.90;;;;;;5476332;26;20292;-73
2024/04/10 04:24:32;;;;;;;8.10;2.30;;;9.70;99.90;;;;;;5493297;25;20287;-72
2024/04/10 04:26:57;;;;;;;7.00;3.00;;;9.70;99.90;;;;;;5473865;26;20246;-72
2024/04/10 04:29:23;;;;;;;7.97;2.10;;;9.70;99.90;;;;;;5478713;26;20233;-72
2024/04/10 04:31:50;;;;;;;5.87;2.00;;;9.70;99.90;;;;;;5473051;26;20633;-73
2024/04/10 04:34:16;;;;;;;10.03;3.20;;;9.70;99.90;;;;;;5479403;26;20602;-74
2024/04/10 04:36:43;;;;;;;9.33;3.80;;;9.70;99.90;;;;;;5442627;20;20545;-73
2024/04/10 04:39:08;;;;;;;10.60;2.30;;;9.60;99.90;;;;;;5363266;26;20632;-72
2024/04/10 04:41:35;;;;;;;10.87;2.87;;;9.60;99.90;;;;;;5404382;26;20480;-71
2024/04/10 04:44:01;;;;;;;11.10;3.03;;;9.70;99.90;;;;;;5403642;26;20281;-71
2024/04/10 04:46:27;;;;;;;10.60;2.53;;;9.70;99.90;;;;;;5404856;26;20468;-69
2024/04/10 04:48:53;;;;;;;11.73;2.73;;;9.70;99.90;;;;;;5404722;26;20819;-69
2024/04/10 04:51:18;;;;;;;8.47;2.70;;;9.70;99.90;;;;;;5406051;26;20290;-69
2024/04/10 04:53:44;;;;;;;10.03;3.17;;;9.70;99.90;;;;;;5408232;26;20239;-70
2024/04/10 04:56:10;;;;;;;5.30;2.63;;;9.70;99.90;;;;;;5408969;26;20310;-69
2024/04/10 04:58:35;;;;;;;8.47;3.17;;;9.80;99.90;;;;;;5407501;26;20235;-69
2024/04/10 05:01:01;;;;;;;9.33;2.70;;;9.80;99.90;;;;;;5377120;26;20243;-69
2024/04/10 05:06:11;;;;;;;11.80;3.43;;;9.90;99.90;;;;;;5408106;26;20331;-69
2024/04/10 05:08:37;;;;;;;7.37;2.43;;;9.80;99.90;;;;;;5406718;26;20531;-69
2024/04/10 05:11:09;;;;;;;11.10;3.30;;;9.80;99.90;;;;;;5407117;26;20242;-69
2024/04/10 05:13:36;;;;;;;8.13;2.67;;;9.80;99.90;;;;;;5408125;26;20758;-69
2024/04/10 05:16:02;;;;;;;11.20;3.17;;;9.80;99.90;;;;;;5406832;26;20515;-69
2024/04/10 05:18:28;;;;;;;9.93;3.70;;;9.90;99.90;;;;;;5405749;26;20545;-69
2024/04/10 05:20:54;;;;;;;6.67;2.40;;;9.90;99.90;;;;;;5377070;26;20488;-69
2024/04/10 05:23:19;;;;;;;8.90;3.17;;;9.90;99.90;;;;;;5407952;26;20282;-69
2024/04/10 05:25:49;;;;;;;9.90;4.00;;;9.90;99.90;;;;;;5407762;26;20328;-69
2024/04/10 05:28:14;;;;;;;7.50;3.00;;;9.90;99.90;;;;;;5404573;26;20234;-70
2024/04/10 05:30:41;;;;;;;8.97;3.47;;;9.90;99.90;;;;;;5406353;26;20578;-69
2024/04/10 05:33:06;;;;;;;11.63;3.70;;;9.90;99.90;;;;;;5407937;26;20560;-70
2024/04/10 05:35:32;;;;;;;8.57;3.20;;;9.90;99.90;;;;;;5391582;26;20461;-69
2024/04/10 05:37:59;;;;;;;8.10;3.10;;;9.90;99.90;;;;;;5406215;26;20343;-69
2024/04/10 05:40:25;;;;;;;8.37;2.67;;;9.90;99.90;;;;;;5407626;26;20227;-70
2024/04/10 05:42:51;;;;;;;8.70;3.40;;;9.90;99.90;;;;;;5376206;26;20476;-69
2024/04/10 05:45:18;;;;;;;12.03;3.30;;;10.00;99.90;;;;;;5408327;26;20579;-70
2024/04/10 05:47:50;;;;;;;11.37;4.97;;;10.10;99.90;;;;;;5405685;26;20503;-70
2024/04/10 05:50:16;;;;;;;9.77;3.63;;;10.10;99.90;;;;;;5375737;26;20876;-70
2024/04/10 05:52:42;;;;;;;6.57;2.70;;;10.00;99.90;;;;;;5407497;26;20460;-70
2024/04/10 05:55:09;;;;;;;7.03;2.90;;;10.00;99.90;;;;;;5376621;26;20630;-69
2024/04/10 05:57:35;;;;;;;10.23;2.97;;;10.00;99.90;;;;;;5375453;26;20549;-70
2024/04/10 06:00:03;;;;;;;11.27;2.70;;;10.00;99.90;;;;;;5407926;26;20890;-69
2024/04/10 06:02:29;;;;;;;7.87;2.80;;;10.00;99.90;;;;;;5408294;26;20469;-69
2024/04/10 06:04:56;;;;;;;8.37;2.90;;;10.10;99.90;;;;;;5407333;26;20521;-70
2024/04/10 06:07:22;;;;;;;10.27;2.70;;;10.10;99.90;;;;;;5379929;26;20519;-70
2024/04/10 06:09:55;;;;;;;7.13;2.70;;;10.00;99.90;;;;;;5407444;26;20481;-71
2024/04/10 06:12:21;;;;;;;10.07;2.90;;;9.90;99.90;;;;;;5407965;26;20590;-70
2024/04/10 06:14:51;;;;;;;10.00;2.70;;;9.90;99.90;;;;;;5406397;26;20507;-70
2024/04/10 06:17:17;;;;;;;6.17;2.70;;;9.90;99.90;;;;;;5375672;26;20540;-70
2024/04/10 06:19:43;;;;;;;8.77;2.47;;;9.90;99.90;;;;;;5406585;26;20452;-72
2024/04/10 06:22:09;;;;;;;12.20;2.60;;;9.90;99.90;;;;;;5404300;26;20243;-71
2024/04/10 06:24:34;;;;;;;8.80;2.60;;;9.90;99.90;;;;;;5400862;26;20239;-71
2024/04/10 06:27:00;;;;;;;8.50;2.80;;;10.10;99.90;;;;;;5370548;26;20484;-71
2024/04/10 06:29:26;;;;;;;8.80;3.07;;;10.10;99.90;;;;;;5372198;26;20242;-71
2024/04/10 06:31:52;;;;;;;8.10;2.57;;;10.10;99.90;;;;;;5361681;26;20465;-70
2024/04/10 06:34:18;;;;;;;9.57;3.00;;;10.20;99.90;;;;;;5405541;26;20289;-70
2024/04/10 06:36:44;;;;;;;13.43;2.97;;;10.20;99.90;;;;;;5404877;26;20525;-71
2024/04/10 06:39:10;;;;;;;6.13;2.83;;;10.20;99.90;;;;;;5406602;26;20235;-70
2024/04/10 06:41:36;;;;;;;9.30;2.60;;;10.20;99.90;;;;;;5346918;26;20238;-70
2024/04/10 06:44:02;;;;;;;5.47;2.30;;;10.20;99.90;;;;;;5406497;26;20570;-69
2024/04/10 06:46:27;;;;;;;11.63;3.63;;;10.30;99.90;;;;;;5406157;26;20793;-69
2024/04/10 06:48:53;;;;;;;9.10;2.83;;;10.30;99.90;;;;;;5404748;26;20266;-69
2024/04/10 06:51:19;;;;;;;6.63;3.20;;;10.30;99.90;;;;;;5405942;26;20238;-69
2024/04/10 06:53:44;;;;;;;6.73;3.03;;;10.30;99.90;;;;;;5374778;26;20231;-70
2024/04/10 06:56:11;;;;;;;6.53;2.33;;;10.30;99.90;;;;;;5405970;26;20883;-70
2024/04/10 06:58:36;;;;;;;8.43;2.87;;;10.30;99.90;;;;;;5403645;26;20243;-70
2024/04/10 07:01:05;;;;;;;9.30;3.10;;;10.40;99.90;;;;;;5406393;26;20607;-70
2024/04/10 07:03:33;;;;;;;8.53;2.50;;;10.50;99.90;;;;;;5406000;26;20560;-69
2024/04/10 07:06:17;;;;;;;7.90;2.90;;;10.40;99.90;;;;;;5373405;26;20611;-70
2024/04/10 07:08:45;;;;;;;12.67;3.60;;;10.50;99.90;;;;;;5406299;26;20473;-70
2024/04/10 07:11:14;;;;;;;5.50;2.90;;;10.40;99.90;;;;;;5408414;26;20939;-70
2024/04/10 07:13:50;;;;;;;8.23;2.60;;;10.50;99.90;;;;;;5374934;26;20484;-69
2024/04/10 07:16:17;;;;;;;8.90;2.93;;;10.50;99.90;;;;;;5409228;26;20507;-70
2024/04/10 07:18:44;;;;;;;12.43;3.37;;;10.50;99.90;;;;;;5410262;26;21081;-70
2024/04/10 07:21:12;;;;;;;8.60;2.80;;;10.60;99.90;;;;;;5408220;26;21190;-70
2024/04/10 07:23:39;;;;;;;7.50;3.77;;;10.70;99.90;;;;;;5409902;26;20494;-70
2024/04/10 07:26:14;;;;;;;6.90;3.53;;;10.80;99.90;;;;;;5409674;26;21012;-71
2024/04/10 07:28:44;;;;;;;7.53;2.80;;;11.00;99.90;;;;;;5407133;26;20543;-69
2024/04/10 07:31:15;;;;;;;8.07;3.80;;;11.10;99.90;;;;;;5410014;26;20452;-69
2024/04/10 07:33:41;;;;;;;8.03;3.90;;;11.10;99.90;;;;;;5408355;26;20472;-69
2024/04/10 07:36:17;;;;;;;8.67;3.07;;;11.20;99.90;;;;;;5409138;26;21075;-70
2024/04/10 07:38:43;;;;;;;7.10;4.07;;;11.20;99.90;;;;;;5408790;26;20476;-69
2024/04/10 07:41:09;;;;;;;9.50;4.50;;;11.30;99.90;;;;;;5409171;26;20579;-68
2024/04/10 07:43:35;;;;;;;8.17;3.63;;;11.40;99.90;;;;;;5408372;26;20668;-69
2024/04/10 07:46:12;;;;;;;10.13;5.13;;;11.40;99.90;;;;;;5407777;26;20472;-69
2024/04/10 07:48:39;;;;;;;13.20;5.27;;;11.50;99.90;;;;;;5375110;26;21097;-69
2024/04/10 07:51:09;;;;;;;9.17;4.43;;;11.50;99.90;;;;;;5406469;26;20515;-69
2024/04/10 07:53:37;;;;;;;10.63;4.47;;;11.60;99.90;;;;;;5406689;26;20468;-69
2024/04/10 07:56:04;;;;;;;8.93;3.80;;;11.70;99.90;;;;;;5407319;26;21161;-69
2024/04/10 07:58:34;;;;;;;16.43;5.07;;;11.80;99.90;;;;;;5407422;26;20532;-69
2024/04/10 08:01:00;;;;;;;6.30;4.70;;;11.80;99.90;;;;;;5407727;26;20580;-70
2024/04/10 08:03:28;;;;;;;6.77;4.73;;;11.90;99.90;;;;;;5378648;26;20476;-69
2024/04/10 08:05:54;;;;;;;7.90;4.10;;;12.00;99.90;;;;;;5376692;26;20472;-70
2024/04/10 08:08:20;;;;;;;7.20;3.90;;;12.00;99.90;;;;;;5408369;26;20537;-70
2024/04/10 08:10:47;;;;;;;10.20;4.47;;;12.00;99.90;;;;;;5376938;26;20571;-70
2024/04/10 08:13:14;;;;;;;7.73;4.87;;;12.00;99.90;;;;;;5408978;26;20514;-71
2024/04/10 08:15:41;;;;;;;8.47;5.03;;;12.00;99.90;;;;;;5407878;26;20803;-70
2024/04/10 08:18:06;;;;;;;7.63;5.30;;;12.00;99.90;;;;;;5376565;26;20506;-70
2024/04/10 08:20:32;;;;;;;8.20;5.03;;;12.10;99.90;;;;;;5409002;26;20580;-70
2024/04/10 08:22:58;;;;;;;15.07;5.70;;;12.10;99.90;;;;;;5408177;26;20231;-70
2024/04/10 08:25:24;;;;;;;11.90;5.57;;;12.10;99.90;;;;;;5377535;26;20284;-70
2024/04/10 08:27:50;;;;;;;8.50;5.63;;;12.20;99.90;;;;;;5408017;26;20476;-71
2024/04/10 08:30:16;;;;;;;12.83;7.07;;;12.10;99.90;;;;;;5376135;26;20888;-69
2024/04/10 08:32:42;;;;;;;15.13;6.13;;;12.10;99.90;;;;;;5407781;26;20633;-70
2024/04/10 08:35:08;;;;;;;12.20;5.90;;;12.00;99.90;;;;;;5408571;26;20614;-70
2024/04/10 08:37:34;;;;;;;10.70;6.17;;;11.90;99.90;;;;;;5407925;26;20574;-70
2024/04/10 08:39:59;;;;;;;14.77;5.80;;;12.00;99.90;;;;;;5407840;26;20517;-70
2024/04/10 08:42:27;;;;;;;13.80;5.70;;;12.00;99.90;;;;;;5408743;26;20345;-70
2024/04/10 08:44:54;;;;;;;8.37;5.33;;;12.00;99.90;;;;;;5407990;26;20234;-70
2024/04/10 08:47:21;;;;;;;13.60;5.17;;;12.10;99.90;;;;;;5407351;26;20513;-70
2024/04/10 08:49:47;;;;;;;8.23;6.27;;;12.10;99.90;;;;;;5404935;26;20863;-70
2024/04/10 08:52:15;;;;;;;13.43;6.77;;;12.10;99.90;;;;;;5404433;26;20524;-70
2024/04/10 08:54:41;;;;;;;11.93;7.03;;;12.10;99.90;;;;;;5408372;26;21134;-70
2024/04/10 08:57:06;;;;;;;11.17;6.37;;;12.00;99.90;;;;;;5364467;26;21256;-69
2024/04/10 08:59:33;;;;;;;10.27;7.53;;;12.10;99.90;;;;;;5373020;26;20581;-70
2024/04/10 09:02:01;;;;;;;9.53;7.50;;;12.10;99.90;;;;;;5405683;26;20281;-70
2024/04/10 09:04:27;;;;;;;11.60;6.70;;;12.10;99.90;;;;;;5407310;26;20449;-70
2024/04/10 09:07:00;;;;;;;13.60;7.40;;;12.20;99.90;;;;;;5407703;26;20926;-70
2024/04/10 09:09:26;;;;;;;8.63;6.73;;;12.20;99.90;;;;;;5362260;26;20590;-70
2024/04/10 09:11:52;;;;;;;10.10;7.20;;;12.30;99.90;;;;;;5407762;26;20476;-68
2024/04/10 09:14:18;;;;;;;9.00;6.63;;;12.40;99.90;;;;;;5408457;26;20235;-70
2024/04/10 09:16:44;;;;;;;10.17;6.90;;;12.40;99.90;;;;;;5406118;26;20540;-69
2024/04/10 09:19:10;;;;;;;9.43;6.67;;;12.50;99.90;;;;;;5407307;26;20578;-70
2024/04/10 09:21:39;;;;;;;10.30;7.93;;;12.60;99.90;;;;;;5408486;26;20529;-70
2024/04/10 09:24:05;;;;;;;11.60;7.33;;;12.70;99.90;;;;;;5407925;26;20861;-70
2024/04/10 09:26:31;;;;;;;10.50;7.43;;;12.70;99.90;;;;;;5376925;26;20480;-70
2024/04/10 09:29:09;;;;;;;13.40;7.03;;;12.70;99.90;;;;;;5404693;26;20469;-70
2024/04/10 09:31:36;;;;;;;11.97;7.50;;;12.80;99.90;;;;;;5404755;26;20283;-70
2024/04/10 09:34:02;;;;;;;14.33;6.63;;;12.90;99.90;;;;;;5406867;26;20456;-70
2024/04/10 09:36:35;;;;;;;10.53;6.50;;;13.00;99.90;;;;;;5407435;26;20551;-70
2024/04/10 09:39:05;;;;;;;10.10;6.33;;;13.00;99.90;;;;;;5406456;26;20570;-70
2024/04/10 09:41:34;;;;;;;10.50;6.17;;;13.10;99.90;;;;;;5407384;26;21047;-71
2024/04/10 09:44:02;;;;;;;10.90;5.03;;;13.10;99.90;;;;;;5376045;26;20461;-70
2024/04/10 09:46:34;;;;;;;7.83;5.03;;;13.10;99.90;;;;;;5407035;26;20464;-70
2024/04/10 09:49:10;;;;;;;9.43;4.97;;;13.20;99.90;;;;;;5403874;26;20462;-70
2024/04/10 09:51:38;;;;;;;10.67;5.67;;;13.30;99.90;;;;;;5407070;26;20464;-70
2024/04/10 09:54:07;;;;;;;6.10;5.23;;;13.40;99.90;;;;;;5405611;26;21012;-70
2024/04/10 09:56:38;;;;;;;6.03;4.07;;;13.50;99.90;;;;;;5406251;26;21200;-70
2024/04/10 09:59:06;;;;;;;10.67;3.90;;;13.60;99.90;;;;;;5363117;26;20465;-70
2024/04/10 10:01:32;;;;;;;5.47;3.00;;;13.70;99.90;;;;;;5406276;26;20517;-70
2024/04/10 10:03:58;;;;;;;14.57;4.40;;;13.60;99.90;;;;;;5407909;26;20837;-70
2024/04/10 10:06:28;;;;;;;8.33;3.50;;;13.70;99.90;;;;;;5405471;26;20310;-70
2024/04/10 10:08:54;;;;;;;7.00;3.80;;;13.70;99.90;;;;;;5405832;26;20263;-70
2024/04/10 10:11:22;;;;;;;5.60;3.47;;;13.60;99.90;;;;;;5407376;26;20523;-70
2024/04/10 10:14:06;;;;;;;6.27;2.97;;;13.70;99.90;;;;;;5405917;26;20473;-70
2024/04/10 10:16:32;;;;;;;4.90;2.70;;;13.70;99.90;;;;;;5404993;26;20610;-71
2024/04/10 10:18:59;;;;;;;4.97;3.20;;;13.90;99.90;;;;;;5374907;26;20473;-70
2024/04/10 10:21:26;;;;;;;6.80;3.40;;;13.90;99.90;;;;;;5408201;26;20332;-70
2024/04/10 10:24:14;;;;;;;6.90;3.03;;;13.90;99.90;;;;;;5407805;26;20566;-70
2024/04/10 10:26:41;;;;;;;8.13;3.10;;;13.80;99.90;;;;;;5407916;26;20552;-70
2024/04/10 10:29:08;;;;;;;6.80;3.23;;;13.80;99.90;;;;;;5407499;26;20460;-69
2024/04/10 10:31:34;;;;;;;5.30;3.17;;;13.80;99.90;;;;;;5376459;26;20465;-69
2024/04/10 10:34:00;;;;;;;5.37;2.97;;;13.80;99.90;;;;;;5407755;26;20804;-69
2024/04/10 10:36:26;;;;;;;6.43;3.20;;;13.90;99.90;;;;;;5376212;21;20575;-73
2024/04/10 10:39:08;;;;;;;4.90;2.47;;;13.90;99.90;;;;;;5432511;26;20242;-69
2024/04/10 10:41:35;;;;;;;5.80;2.97;;;13.90;99.90;;;;;;5436752;26;20590;-74
2024/04/10 10:44:01;;;;;;;4.50;2.83;;;13.90;99.90;;;;;;5440930;26;20475;-73
2024/04/10 10:46:27;;;;;;;6.40;3.00;;;13.90;99.90;;;;;;5396234;26;20505;-74
2024/04/10 10:48:53;;;;;;;6.87;2.93;;;13.80;99.90;;;;;;5394702;26;21091;-71
2024/04/10 10:51:19;;;;;;;7.17;2.80;;;13.70;99.90;;;;;;5440529;26;20463;-73
2024/04/10 10:53:46;;;;;;;5.73;3.10;;;13.80;99.90;;;;;;5440193;26;20527;-70
2024/04/10 10:56:12;;;;;;;5.60;3.40;;;13.70;99.90;;;;;;5440582;26;20475;-70
2024/04/10 10:58:37;;;;;;;6.80;2.90;;;13.70;99.90;;;;;;5437327;26;20467;-72
2024/04/10 11:01:07;;;;;;;6.63;2.67;;;13.70;99.90;;;;;;5439305;26;20234;-70
2024/04/10 11:03:33;;;;;;;7.50;3.13;;;13.70;99.90;;;;;;5437980;26;20264;-69
2024/04/10 11:06:11;;;;;;;7.43;3.07;;;13.70;99.90;;;;;;5439023;26;20812;-75
2024/04/10 11:08:38;;;;;;;9.30;3.20;;;13.80;99.90;;;;;;5436435;26;20237;-72
2024/04/10 11:11:04;;;;;;;8.43;2.97;;;13.90;99.90;;;;;;5439559;26;20990;-72
2024/04/10 11:13:30;;;;;;;7.87;2.77;;;13.90;99.90;;;;;;5440247;26;20550;-70
2024/04/10 11:15:59;;;;;;;5.53;3.07;;;14.00;99.90;;;;;;5438659;26;20487;-68
2024/04/10 11:18:26;;;;;;;5.73;3.00;;;14.00;99.90;;;;;;5439526;26;21067;-72
2024/04/10 11:20:52;;;;;;;3.93;3.00;;;14.00;99.90;;;;;;5438387;26;20500;-71
2024/04/10 11:23:19;;;;;;;6.77;2.83;;;14.00;99.90;;;;;;5440604;26;21423;-72
2024/04/10 11:25:45;;;;;;;7.10;2.63;;;14.00;99.90;;;;;;5440629;26;20479;-70
2024/04/10 11:28:12;;;;;;;6.13;2.47;;;14.00;99.90;;;;;;5438691;26;20879;-73
2024/04/10 11:30:39;;;;;;;4.60;2.87;;;14.20;99.90;;;;;;5435949;26;20475;-71
2024/04/10 11:33:09;;;;;;;6.77;2.60;;;14.40;99.90;;;;;;5440748;26;20455;-70
2024/04/10 11:35:37;;;;;;;4.97;2.40;;;14.50;99.90;;;;;;5436705;26;20614;-73
2024/04/10 11:38:03;;;;;;;5.93;2.67;;;14.60;99.90;;;;;;5437740;26;20455;-72
2024/04/10 11:40:29;;;;;;;4.00;2.10;;;14.70;99.90;;;;;;5439915;26;20474;-67
2024/04/10 11:42:54;;;;;;;6.97;2.30;;;14.70;99.90;;;;;;5436865;26;21378;-69
2024/04/10 11:45:20;;;;;;;5.70;3.00;;;14.70;99.90;;;;;;5439916;26;20229;-67
2024/04/10 11:47:48;;;;;;;4.30;2.60;;;14.80;99.90;;;;;;5437217;26;20229;-70
2024/04/10 11:50:17;;;;;;;6.50;2.50;;;14.70;99.90;;;;;;5436879;26;20309;-70
2024/04/10 11:52:45;;;;;;;5.73;2.43;;;14.70;99.90;;;;;;5438818;26;20463;-72
2024/04/10 11:55:12;;;;;;;4.70;2.20;;;14.70;99.90;;;;;;5422557;26;20468;-73
2024/04/10 11:57:38;;;;;;;6.47;2.13;;;14.60;99.90;;;;;;5434403;26;20696;-73
2024/04/10 12:00:07;;;;;;;4.00;1.50;;;14.50;99.90;;;;;;5408341;26;20451;-67
2024/04/10 12:02:33;;;;;;;6.30;2.23;;;14.50;99.90;;;;;;5438901;26;20538;-69
2024/04/10 12:05:04;;;;;;;6.20;2.13;;;14.50;99.90;;;;;;5437886;26;20527;-75
2024/04/10 12:07:30;;;;;;;5.10;2.07;;;14.60;99.90;;;;;;5437017;26;20520;-67
2024/04/10 12:09:56;;;;;;;4.07;2.10;;;14.70;99.90;;;;;;5438432;26;20591;-72
2024/04/10 12:12:22;;;;;;;3.53;1.40;;;14.90;99.90;;;;;;5438838;26;20483;-72
2024/04/10 12:14:47;;;;;;;5.77;2.00;;;15.20;99.90;;;;;;5436426;26;20925;-71
2024/04/10 12:17:13;;;;;;;3.53;1.70;;;15.50;99.90;;;;;;5437916;26;21052;-72
2024/04/10 12:19:39;;;;;;;9.13;1.90;;;15.70;99.90;;;;;;5436445;26;20241;-72
2024/04/10 12:22:04;;;;;;;2.60;2.20;;;15.90;98.30;;;;;;5437191;26;20707;-74
2024/04/10 12:24:30;;;;;;;4.10;1.50;;;15.90;96.60;;;;;;5438887;26;20285;-70
2024/04/10 12:26:56;;;;;;;4.53;1.30;;;15.80;97.30;;;;;;5437004;26;21109;-73
2024/04/10 12:29:23;;;;;;;3.30;1.77;;;15.60;97.40;;;;;;5431029;26;20235;-73
2024/04/10 12:31:49;;;;;;;3.30;1.83;;;15.40;98.00;;;;;;5434266;26;20503;-67
2024/04/10 12:34:15;;;;;;;5.80;1.77;;;15.40;97.40;;;;;;5435275;26;20465;-69
2024/04/10 12:39:26;;;;;;;3.47;1.87;;;15.30;97.40;;;;;;5432723;26;20573;-69
2024/04/10 12:41:54;;;;;;;4.27;2.07;;;15.30;97.70;;;;;;5433688;26;20461;-71
2024/04/10 12:44:23;;;;;;;4.10;1.90;;;15.20;97.10;;;;;;5423572;26;20256;-69
2024/04/10 12:46:53;;;;;;;3.63;1.47;;;15.10;97.80;;;;;;5433844;26;20467;-70
2024/04/10 12:49:23;;;;;;;2.73;1.73;;;15.00;97.60;;;;;;5437415;26;20557;-70
2024/04/10 12:51:49;;;;;;;3.80;1.90;;;15.10;97.40;;;;;;5430175;26;20482;-70